createdAt,value
2018-07-24T00:00:54.238Z,99.90
2018-07-24T00:03:25.092Z,99.90
2018-07-24T00:05:59.886Z,99.90
2018-07-24T00:08:30.026Z,99.90
2018-07-24T00:11:05.028Z,99.90
2018-07-24T00:13:39.401Z,99.90
2018-07-24T00:16:18.410Z,99.90
2018-07-24T00:18:56.936Z,99.90
2018-07-24T00:21:27.642Z,99.90
2018-07-24T00:24:00.784Z,99.90
2018-07-24T00:26:36.796Z,99.90
2018-07-24T00:29:19.335Z,99.90
2018-07-24T00:31:54.420Z,99.90
2018-07-24T00:34:33.636Z,99.90
2018-07-24T00:40:09.374Z,99.90
2018-07-24T00:42:44.632Z,99.90
2018-07-24T00:45:20.177Z,99.90
2018-07-24T00:47:53.572Z,99.90
2018-07-24T00:50:25.502Z,99.90
2018-07-24T00:53:07.129Z,99.90
2018-07-24T00:55:55.176Z,99.90
2018-07-24T00:58:26.924Z,99.90
2018-07-24T01:01:01.110Z,99.90
2018-07-24T01:03:36.874Z,99.90
2018-07-24T01:06:12.403Z,99.90
2018-07-24T01:08:42.090Z,99.90
2018-07-24T01:11:16.578Z,99.90
2018-07-24T01:13:53.264Z,99.90
2018-07-24T01:16:22.476Z,99.90
2018-07-24T01:18:56.926Z,99.90
2018-07-24T01:21:25.664Z,99.90
2018-07-24T01:24:06.067Z,99.90
2018-07-24T01:26:43.752Z,99.90
2018-07-24T01:29:16.109Z,99.90
2018-07-24T01:31:55.991Z,99.90
2018-07-24T01:34:32.880Z,99.90
2018-07-24T01:37:05.844Z,99.90
2018-07-24T01:39:45.340Z,99.90
2018-07-24T01:52:18.734Z,99.90
2018-07-24T01:54:51.601Z,99.90
2018-07-24T02:00:30.222Z,99.90
2018-07-24T02:03:05.982Z,99.90
2018-07-24T02:05:42.290Z,99.90
2018-07-24T02:08:11.714Z,99.90
2018-07-24T02:10:47.135Z,99.90
2018-07-24T02:13:28.986Z,99.90
2018-07-24T02:16:09.067Z,99.90
2018-07-24T02:18:38.684Z,99.90
2018-07-24T02:21:18.710Z,99.90
2018-07-24T02:23:49.258Z,99.90
2018-07-24T02:26:17.657Z,99.90
2018-07-24T02:31:45.820Z,99.90
2018-07-24T02:34:19.737Z,99.90
2018-07-24T02:37:06.799Z,99.90
2018-07-24T02:45:25.681Z,99.90
2018-07-24T02:48:08.093Z,99.90
2018-07-24T02:50:41.935Z,99.90
2018-07-24T02:56:04.892Z,99.90
2018-07-24T02:58:37.685Z,99.90
2018-07-24T03:01:07.827Z,99.90
2018-07-24T03:03:49.929Z,99.90
2018-07-24T03:06:24.209Z,99.90
2018-07-24T03:08:52.681Z,99.90
2018-07-24T03:11:23.295Z,99.90
2018-07-24T03:13:57.081Z,99.90
2018-07-24T03:16:33.321Z,99.90
2018-07-24T03:19:07.765Z,99.90
2018-07-24T03:21:55.093Z,99.90
2018-07-24T03:24:34.571Z,99.90
2018-07-24T03:27:11.201Z,99.90
2018-07-24T03:29:49.689Z,99.90
2018-07-24T03:32:22.811Z,99.90
2018-07-24T03:35:02.180Z,99.90
2018-07-24T03:37:42.879Z,99.90
2018-07-24T03:40:24.412Z,99.90
2018-07-24T03:42:58.681Z,99.90
2018-07-24T03:54:19.103Z,99.90
2018-07-24T03:56:54.597Z,99.90
2018-07-24T03:59:29.268Z,99.90
2018-07-24T04:02:12.699Z,99.90
2018-07-24T04:04:54.281Z,99.90
2018-07-24T04:07:25.321Z,99.90
2018-07-24T04:09:57.251Z,99.90
2018-07-24T04:12:31.863Z,99.90
2018-07-24T04:15:01.756Z,99.90
2018-07-24T04:17:37.596Z,99.90
2018-07-24T04:23:05.864Z,99.90
2018-07-24T04:31:35.733Z,99.90
2018-07-24T04:34:11.021Z,99.90
2018-07-24T04:36:52.475Z,99.90
2018-07-24T04:45:26.270Z,99.90
2018-07-24T04:50:52.608Z,99.90
2018-07-24T04:53:25.457Z,99.90
2018-07-24T04:55:55.659Z,99.90
2018-07-24T04:58:25.037Z,99.90
2018-07-24T05:01:06.277Z,99.90
2018-07-24T05:03:47.006Z,99.90
2018-07-24T05:06:28.499Z,99.90
2018-07-24T05:08:57.138Z,99.90
2018-07-24T05:11:28.241Z,99.90
2018-07-24T05:13:58.349Z,99.90
2018-07-24T05:22:20.300Z,99.90
2018-07-24T05:25:06.150Z,99.90
2018-07-24T05:27:48.077Z,99.90
2018-07-24T05:30:25.386Z,99.90
2018-07-24T05:33:00.169Z,99.90
2018-07-24T05:35:29.267Z,99.90
2018-07-24T05:40:50.292Z,99.90
2018-07-24T05:43:24.535Z,99.90
2018-07-24T05:46:02.382Z,99.90
2018-07-24T05:48:38.249Z,99.90
2018-07-24T05:51:06.889Z,99.90
2018-07-24T05:53:41.757Z,99.90
2018-07-24T05:56:11.273Z,99.90
2018-07-24T05:58:41.258Z,99.90
2018-07-24T06:01:10.037Z,99.90
2018-07-24T06:03:57.427Z,99.90
2018-07-24T06:06:32.063Z,99.90
2018-07-24T06:09:12.321Z,99.90
2018-07-24T06:12:06.538Z,99.90
2018-07-24T06:14:37.777Z,99.90
2018-07-24T06:20:42.775Z,99.90
2018-07-24T06:35:54.588Z,99.90
2018-07-24T06:47:07.358Z,99.90
2018-07-24T06:53:46.022Z,99.90
2018-07-24T08:02:16.437Z,99.90
2018-07-24T08:19:28.380Z,99.90
2018-07-24T08:42:22.051Z,99.90
2018-07-24T09:26:57.476Z,99.10
2018-07-24T09:49:38.968Z,96.40
2018-07-24T10:22:12.351Z,94.50
2018-07-24T10:36:32.092Z,94.10
2018-07-24T10:56:59.730Z,93.30
2018-07-24T11:18:08.589Z,93.30
2018-07-24T11:20:43.373Z,91.30
2018-07-24T11:23:15.217Z,91.90
2018-07-24T11:28:45.622Z,91.40
2018-07-24T11:43:07.463Z,92.60
2018-07-24T11:45:58.638Z,92.20
2018-07-24T11:48:40.101Z,92.90
2018-07-24T11:54:10.623Z,92.90
2018-07-24T12:30:31.585Z,91.60
2018-07-24T12:33:12.291Z,91.60
2018-07-24T12:35:49.322Z,91.60
2018-07-24T12:41:34.808Z,92.10
2018-07-24T12:44:17.524Z,91.90
2018-07-24T12:46:52.856Z,92.10
2018-07-24T12:49:40.982Z,91.60
2018-07-24T12:54:59.681Z,92.60
2018-07-24T12:57:28.368Z,92.50
2018-07-24T13:00:00.942Z,92.60
2018-07-24T13:02:31.614Z,92.20
2018-07-24T13:05:01.310Z,92.60
2018-07-24T13:07:32.340Z,92.20
2018-07-24T13:10:02.340Z,92.70
2018-07-24T13:12:32.944Z,92.50
2018-07-24T13:15:04.233Z,92.30
2018-07-24T13:17:32.954Z,92.50
2018-07-24T13:20:03.377Z,92.70
2018-07-24T13:22:32.890Z,91.50
2018-07-24T13:25:08.040Z,91.40
2018-07-24T13:27:56.997Z,91.40
2018-07-24T13:30:45.194Z,91.50
2018-07-24T13:33:19.305Z,91.40
2018-07-24T13:35:51.972Z,91.30
2018-07-24T13:50:19.527Z,90.10
2018-07-24T13:52:54.375Z,89.60
2018-07-24T13:55:25.377Z,88.40
2018-07-24T13:58:09.459Z,88.80
2018-07-24T14:00:39.917Z,89.60
2018-07-24T14:03:38.685Z,90.00
2018-07-24T14:06:20.997Z,89.50
2018-07-24T14:08:54.954Z,89.90
2018-07-24T14:11:26.433Z,88.70
2018-07-24T14:13:56.177Z,89.60
2018-07-24T14:16:24.666Z,88.40
2018-07-24T14:18:53.591Z,87.90
2018-07-24T14:21:23.149Z,87.10
2018-07-24T14:24:01.402Z,86.20
2018-07-24T14:26:37.441Z,86.30
2018-07-24T14:29:16.937Z,87.10
2018-07-24T14:31:54.394Z,89.20
2018-07-24T14:34:27.268Z,88.00
2018-07-24T14:42:18.682Z,87.90
2018-07-24T14:44:52.720Z,87.20
2018-07-24T14:49:50.728Z,87.40
2018-07-24T14:52:27.718Z,86.60
2018-07-24T14:54:57.217Z,86.20
2018-07-24T14:57:35.792Z,86.20
2018-07-24T15:00:09.240Z,86.60
2018-07-24T15:02:41.886Z,86.30
2018-07-24T15:05:15.341Z,86.80
2018-07-24T15:08:00.110Z,86.80
2018-07-24T15:10:30.883Z,88.30
2018-07-24T15:13:00.944Z,88.80
2018-07-24T15:15:34.032Z,89.60
2018-07-24T15:18:09.538Z,87.70
2018-07-24T15:20:43.145Z,86.80
2018-07-24T15:23:13.703Z,85.30
2018-07-24T15:25:52.149Z,87.20
2018-07-24T15:28:26.149Z,85.80
2018-07-24T15:30:58.223Z,86.00
2018-07-24T15:33:28.681Z,88.10
2018-07-24T15:35:58.488Z,86.10
2018-07-24T15:38:34.692Z,87.20
2018-07-24T15:41:05.236Z,87.20
2018-07-24T15:43:34.043Z,86.00
2018-07-24T15:46:02.621Z,85.60
2018-07-24T15:48:32.570Z,86.80
2018-07-24T15:51:02.184Z,86.20
2018-07-24T15:53:31.063Z,86.50
2018-07-24T15:55:59.788Z,86.30
2018-07-24T16:01:18.048Z,87.20
2018-07-24T16:03:56.786Z,86.90
2018-07-24T16:06:27.812Z,86.90
2018-07-24T16:08:59.719Z,86.80
2018-07-24T16:11:48.806Z,86.20
2018-07-24T16:14:33.070Z,85.60
2018-07-24T16:17:05.030Z,86.10
2018-07-24T16:19:38.722Z,86.50
2018-07-24T16:22:14.310Z,86.20
2018-07-24T16:24:45.132Z,85.30
2018-07-24T16:27:13.678Z,85.90
2018-07-24T16:29:52.271Z,85.40
2018-07-24T16:32:21.074Z,85.40
2018-07-24T16:34:50.061Z,84.30
2018-07-24T16:37:23.810Z,84.50
2018-07-24T16:39:52.858Z,85.10
2018-07-24T16:42:21.822Z,85.80
2018-07-24T16:44:50.497Z,86.60
2018-07-24T16:47:19.162Z,86.80
2018-07-24T16:49:53.581Z,86.90
2018-07-24T16:52:34.660Z,88.90
2018-07-24T16:55:04.317Z,90.40
2018-07-24T16:57:35.626Z,90.90
2018-07-24T17:00:04.680Z,90.90
2018-07-24T17:02:35.171Z,90.90
2018-07-24T17:05:10.346Z,90.80
2018-07-24T17:07:58.425Z,91.00
2018-07-24T17:10:27.182Z,90.70
2018-07-24T17:12:57.074Z,90.70
2018-07-24T17:15:26.659Z,90.80
2018-07-24T17:17:56.341Z,90.50
2018-07-24T17:20:38.883Z,90.80
2018-07-24T17:23:09.841Z,90.60
2018-07-24T17:25:42.943Z,90.70
2018-07-24T17:30:50.724Z,90.90
2018-07-24T17:33:21.421Z,91.00
2018-07-24T17:35:52.335Z,91.40
2018-07-24T17:41:00.371Z,91.50
2018-07-24T17:43:31.577Z,91.80
2018-07-24T17:46:17.473Z,92.00
2018-07-24T17:48:49.383Z,92.10
2018-07-24T17:51:35.897Z,92.10
2018-07-24T17:54:05.814Z,92.30
2018-07-24T17:56:36.114Z,92.20
2018-07-24T17:59:19.143Z,92.50
2018-07-24T18:01:47.917Z,92.80
2018-07-24T18:04:20.605Z,92.90
2018-07-24T18:09:20.487Z,93.60
2018-07-24T18:11:50.808Z,94.00
2018-07-24T18:14:19.632Z,94.10
2018-07-24T18:16:49.769Z,94.20
2018-07-24T18:19:19.352Z,94.20
2018-07-24T18:21:55.743Z,94.40
2018-07-24T18:24:26.635Z,94.30
2018-07-24T18:27:02.211Z,94.30
2018-07-24T18:29:31.919Z,94.30
2018-07-24T18:32:08.691Z,94.10
2018-07-24T18:34:41.549Z,94.10
2018-07-24T18:37:21.000Z,94.10
2018-07-24T18:39:50.792Z,94.00
2018-07-24T18:42:25.188Z,94.10
2018-07-24T18:45:01.561Z,94.40
2018-07-24T18:47:33.533Z,94.30
2018-07-24T18:50:02.148Z,94.30
2018-07-24T18:52:36.917Z,94.30
2018-07-24T18:55:10.190Z,94.50
2018-07-24T18:57:42.072Z,94.60
2018-07-24T19:00:18.576Z,94.90
2018-07-24T19:02:48.030Z,95.00
2018-07-24T19:05:31.278Z,95.20
2018-07-24T19:08:23.483Z,95.30
2018-07-24T19:14:05.196Z,95.60
2018-07-24T19:16:36.146Z,95.50
2018-07-24T19:19:05.866Z,95.40
2018-07-24T19:21:36.939Z,95.70
2018-07-24T19:24:10.248Z,95.70
2018-07-24T19:26:46.348Z,95.60
2018-07-24T19:35:46.264Z,95.80
2018-07-24T19:38:26.763Z,95.70
2018-07-24T19:41:02.942Z,95.80
2018-07-24T19:43:31.720Z,95.90
2018-07-24T19:46:06.868Z,95.90
2018-07-24T19:48:41.019Z,96.10
2018-07-24T19:51:11.916Z,96.10
2018-07-24T19:53:41.555Z,96.20
2018-07-24T19:56:10.291Z,96.50
2018-07-24T19:58:42.639Z,96.60
2018-07-24T20:01:12.387Z,96.70
2018-07-24T20:03:42.463Z,96.60
2018-07-24T20:06:16.871Z,96.60
2018-07-24T20:08:46.696Z,96.60
2018-07-24T20:11:16.617Z,96.70
2018-07-24T20:13:48.846Z,96.70
2018-07-24T20:16:18.867Z,96.70
2018-07-24T20:18:54.475Z,96.60
2018-07-24T20:21:23.223Z,96.50
2018-07-24T20:23:52.127Z,96.50
2018-07-24T20:26:22.690Z,96.40
2018-07-24T20:28:52.798Z,96.50
2018-07-24T20:31:21.317Z,96.70
2018-07-24T20:33:50.130Z,96.70
2018-07-24T20:36:24.075Z,96.80
2018-07-24T20:38:59.213Z,96.80
2018-07-24T20:41:29.962Z,96.80
2018-07-24T20:44:05.013Z,97.00
2018-07-24T20:49:02.512Z,97.30
2018-07-24T20:51:33.615Z,97.20
2018-07-24T20:54:03.669Z,97.40
2018-07-24T20:56:38.644Z,97.30
2018-07-24T20:59:07.298Z,97.40
2018-07-24T21:01:36.140Z,97.30
2018-07-24T21:04:06.771Z,97.40
2018-07-24T21:06:38.536Z,97.40
2018-07-24T21:09:24.040Z,97.50
2018-07-24T21:11:57.732Z,97.90
2018-07-24T21:14:44.469Z,97.60
2018-07-24T21:17:17.555Z,97.50
2018-07-24T21:25:08.396Z,97.60
2018-07-24T21:27:36.832Z,97.60
2018-07-24T21:32:59.669Z,97.80
2018-07-24T21:35:28.378Z,97.80
2018-07-24T21:37:57.097Z,97.90
2018-07-24T21:40:25.727Z,98.10
2018-07-24T21:42:54.708Z,98.40
2018-07-24T21:45:23.134Z,98.30
2018-07-24T21:47:53.635Z,98.40
2018-07-24T21:50:22.416Z,98.50
2018-07-24T21:53:00.855Z,98.50
2018-07-24T21:55:29.535Z,98.60
2018-07-24T21:58:00.090Z,98.80
2018-07-24T22:00:34.860Z,98.90
2018-07-24T22:03:05.702Z,98.90
2018-07-24T22:05:38.051Z,98.90
2018-07-24T22:08:11.825Z,99.10
2018-07-24T22:10:49.872Z,99.10
2018-07-24T22:13:19.595Z,99.10
2018-07-24T22:15:56.224Z,99.10
2018-07-24T22:18:25.806Z,99.30
2018-07-24T22:21:09.787Z,99.40
2018-07-24T22:23:38.357Z,99.30
2018-07-24T22:26:08.817Z,99.40
2018-07-24T22:28:51.864Z,99.40
2018-07-24T22:31:23.627Z,99.30
2018-07-24T22:33:52.015Z,99.40
2018-07-24T22:36:21.765Z,99.50
2018-07-24T22:39:06.583Z,99.50
2018-07-24T22:44:40.499Z,99.50
2018-07-24T22:47:21.177Z,99.60
2018-07-24T22:50:03.730Z,99.70
2018-07-24T22:55:25.077Z,99.60
2018-07-24T22:57:53.737Z,99.70
2018-07-24T23:00:31.919Z,99.80
2018-07-24T23:03:05.529Z,99.80
2018-07-24T23:05:40.381Z,99.90
2018-07-24T23:08:10.936Z,99.90
2018-07-24T23:10:41.440Z,99.90
2018-07-24T23:16:05.006Z,99.90
2018-07-24T23:18:41.019Z,99.90
2018-07-24T23:24:03.591Z,99.90
2018-07-24T23:26:32.262Z,99.90
2018-07-24T23:29:01.891Z,99.90
2018-07-24T23:31:33.389Z,99.90
2018-07-24T23:34:09.336Z,99.90
2018-07-24T23:36:50.014Z,99.90
2018-07-24T23:39:19.624Z,99.90
2018-07-24T23:41:48.120Z,99.90
2018-07-24T23:44:27.127Z,99.90
2018-07-24T23:46:56.754Z,99.90
2018-07-24T23:49:28.612Z,99.90
2018-07-24T23:52:01.233Z,99.90
2018-07-24T23:54:31.764Z,99.90
2018-07-24T23:57:20.394Z,99.90
2018-07-24T23:59:55.538Z,99.90
